createdAt,value
2023-05-19T00:00:25.047Z,97468.22
2023-05-19T00:01:28.518Z,97459.59
2023-05-19T00:02:33.974Z,97467.25
2023-05-19T00:03:40.731Z,97453.41
2023-05-19T00:04:42.797Z,97462.22
2023-05-19T00:05:46.387Z,97461.13
2023-05-19T00:06:51.632Z,97457.91
2023-05-19T00:07:56.689Z,97453.88
2023-05-19T00:09:01.754Z,97454.06
2023-05-19T00:10:03.939Z,97460.91
2023-05-19T00:11:06.530Z,97459.88
2023-05-19T00:12:10.893Z,97455.31
2023-05-19T00:13:13.085Z,97456.94
2023-05-19T00:14:15.024Z,97460.91
2023-05-19T00:15:17.223Z,97452.78
2023-05-19T00:16:19.318Z,97452.00
2023-05-19T00:17:21.486Z,97450.41
2023-05-19T00:18:23.489Z,97457.94
2023-05-19T00:19:25.739Z,97451.94
2023-05-19T00:20:27.747Z,97454.16
2023-05-19T00:21:30.121Z,97453.81
2023-05-19T00:22:32.045Z,97454.44
2023-05-19T00:23:34.004Z,97446.22
2023-05-19T00:24:35.910Z,97445.09
2023-05-19T00:25:37.910Z,97455.13
2023-05-19T00:26:39.824Z,97451.34
2023-05-19T00:27:41.750Z,97451.34
2023-05-19T00:28:43.607Z,97442.53
2023-05-19T00:29:45.440Z,97448.38
2023-05-19T00:30:50.321Z,97444.78
2023-05-19T00:31:52.348Z,97448.00
2023-05-19T00:32:54.234Z,97453.22
2023-05-19T00:33:56.267Z,97451.44
2023-05-19T00:34:58.161Z,97447.03
2023-05-19T00:36:03.384Z,97449.63
2023-05-19T00:37:05.252Z,97443.63
2023-05-19T00:38:07.201Z,97449.63
2023-05-19T00:39:09.094Z,97444.59
2023-05-19T00:40:11.106Z,97439.38
2023-05-19T00:41:13.087Z,97441.19
2023-05-19T00:42:15.128Z,97445.78
2023-05-19T00:43:17.179Z,97437.50
2023-05-19T00:44:19.050Z,97436.88
2023-05-19T00:45:20.973Z,97439.66
2023-05-19T00:46:23.412Z,97436.44
2023-05-19T00:47:25.371Z,97439.03
2023-05-19T00:48:27.965Z,97436.44
2023-05-19T00:49:29.802Z,97440.22
2023-05-19T00:50:32.212Z,97429.97
2023-05-19T00:51:34.496Z,97435.81
2023-05-19T00:52:36.437Z,97439.03
2023-05-19T00:53:38.364Z,97432.84
2023-05-19T00:54:40.277Z,97428.25
2023-05-19T00:55:42.988Z,97438.69
2023-05-19T00:56:44.946Z,97433.03
2023-05-19T00:57:47.266Z,97435.38
2023-05-19T00:58:51.130Z,97434.94
2023-05-19T00:59:53.180Z,97427.13
2023-05-19T01:00:56.364Z,97427.13
2023-05-19T01:01:58.561Z,97421.47
2023-05-19T01:03:00.781Z,97418.50
2023-05-19T01:04:04.895Z,97421.53
2023-05-19T01:05:07.434Z,97418.56
2023-05-19T01:06:09.406Z,97420.81
2023-05-19T01:07:12.809Z,97415.41
2023-05-19T01:08:14.748Z,97422.06
2023-05-19T01:09:17.679Z,97416.84
2023-05-19T01:10:20.365Z,97415.59
2023-05-19T01:11:22.491Z,97419.56
2023-05-19T01:12:24.884Z,97417.94
2023-05-19T01:13:27.817Z,97423.97
2023-05-19T01:14:30.422Z,97415.34
2023-05-19T01:15:40.418Z,97417.78
2023-05-19T01:16:54.384Z,97410.75
2023-05-19T01:18:08.739Z,97416.31
2023-05-19T01:19:11.420Z,97417.31
2023-05-19T01:20:17.383Z,97413.94
2023-05-19T01:21:19.509Z,97411.09
2023-05-19T01:22:23.243Z,97416.53
2023-05-19T01:23:36.892Z,97416.69
2023-05-19T01:24:48.248Z,97414.44
2023-05-19T01:25:59.341Z,97406.47
2023-05-19T01:27:01.342Z,97410.31
2023-05-19T01:28:12.338Z,97409.13
2023-05-19T01:29:25.453Z,97407.16
2023-05-19T01:30:29.648Z,97408.72
2023-05-19T01:31:31.865Z,97409.88
2023-05-19T01:32:34.054Z,97414.72
2023-05-19T01:33:36.640Z,97415.34
2023-05-19T01:34:41.599Z,97412.75
2023-05-19T01:35:44.141Z,97417.94
2023-05-19T01:36:50.125Z,97411.72
2023-05-19T01:37:53.330Z,97412.13
2023-05-19T01:38:57.201Z,97417.50
2023-05-19T01:39:59.321Z,97405.91
2023-05-19T01:41:04.200Z,97407.72
2023-05-19T01:42:07.044Z,97407.34
2023-05-19T01:43:10.474Z,97407.16
2023-05-19T01:44:12.486Z,97398.53
2023-05-19T01:45:14.483Z,97408.78
2023-05-19T01:46:16.843Z,97401.94
2023-05-19T01:47:18.889Z,97402.16
2023-05-19T01:48:21.456Z,97404.94
2023-05-19T01:49:23.369Z,97403.28
2023-05-19T01:50:25.414Z,97401.88
2023-05-19T01:51:28.010Z,97402.03
2023-05-19T01:52:29.844Z,97402.88
2023-05-19T01:53:31.904Z,97397.03
2023-05-19T01:54:34.126Z,97399.53
2023-05-19T01:55:42.750Z,97397.31
2023-05-19T01:56:58.408Z,97403.34
2023-05-19T01:58:03.135Z,97399.31
2023-05-19T01:59:14.973Z,97399.31
2023-05-19T02:00:22.477Z,97399.47
2023-05-19T02:01:43.299Z,97409.09
2023-05-19T02:02:54.666Z,97404.50
2023-05-19T02:03:56.529Z,97407.13
2023-05-19T02:05:03.332Z,97399.94
2023-05-19T02:06:14.458Z,97404.94
2023-05-19T02:07:23.752Z,97398.56
2023-05-19T02:08:44.795Z,97404.75
2023-05-19T02:09:52.440Z,97403.88
2023-05-19T02:11:17.278Z,97399.84
2023-05-19T02:12:19.100Z,97398.78
2023-05-19T02:13:24.209Z,97399.84
2023-05-19T02:14:46.069Z,97389.81
2023-05-19T02:15:49.101Z,97395.66
2023-05-19T02:16:51.215Z,97390.88
2023-05-19T02:17:54.784Z,97388.72
2023-05-19T02:18:57.674Z,97385.94
2023-05-19T02:19:59.971Z,97395.97
2023-05-19T02:21:02.320Z,97390.34
2023-05-19T02:22:04.368Z,97385.75
2023-05-19T02:23:06.508Z,97391.31
2023-05-19T02:24:08.527Z,97395.91
2023-05-19T02:25:10.977Z,97394.47
2023-05-19T02:26:12.916Z,97394.66
2023-05-19T02:27:14.980Z,97394.03
2023-05-19T02:28:16.929Z,97389.38
2023-05-19T02:29:19.192Z,97393.22
2023-05-19T02:30:21.263Z,97388.63
2023-05-19T02:31:23.220Z,97389.44
2023-05-19T02:32:25.192Z,97389.25
2023-05-19T02:33:27.805Z,97391.88
2023-05-19T02:34:29.810Z,97389.09
2023-05-19T02:35:31.720Z,97395.09
2023-05-19T02:36:35.260Z,97389.72
2023-05-19T02:37:37.265Z,97396.19
2023-05-19T02:38:39.125Z,97388.16
2023-05-19T02:39:44.443Z,97394.19
2023-05-19T02:40:46.347Z,97397.78
2023-05-19T02:41:48.269Z,97394.19
2023-05-19T02:42:50.227Z,97394.00
2023-05-19T02:43:52.105Z,97401.19
2023-05-19T02:44:54.858Z,97388.16
2023-05-19T02:45:56.748Z,97387.81
2023-05-19T02:46:58.747Z,97396.06
2023-05-19T02:48:00.856Z,97386.81
2023-05-19T02:49:02.782Z,97388.38
2023-05-19T02:50:05.651Z,97387.53
2023-05-19T02:51:07.661Z,97388.38
2023-05-19T02:52:09.530Z,97383.41
2023-05-19T02:53:11.525Z,97390.88
2023-05-19T02:54:13.431Z,97391.66
2023-05-19T02:55:17.521Z,97387.19
2023-05-19T02:56:19.441Z,97384.13
2023-05-19T02:57:22.437Z,97383.16
2023-05-19T02:58:24.400Z,97385.13
2023-05-19T02:59:26.379Z,97383.31
2023-05-19T03:00:28.302Z,97388.72
2023-05-19T03:01:30.150Z,97387.13
2023-05-19T03:02:34.495Z,97383.25
2023-05-19T03:03:36.774Z,97383.97
2023-05-19T03:04:41.956Z,97381.91
2023-05-19T03:05:43.956Z,97383.34
2023-05-19T03:06:47.202Z,97374.53
2023-05-19T03:07:49.094Z,97379.41
2023-05-19T03:08:51.396Z,97375.78
2023-05-19T03:09:53.381Z,97381.28
2023-05-19T03:10:55.246Z,97380.28
2023-05-19T03:11:57.134Z,97376.88
2023-05-19T03:12:59.144Z,97376.88
2023-05-19T03:14:01.174Z,97376.50
2023-05-19T03:15:03.282Z,97374.34
2023-05-19T03:16:05.284Z,97384.31
2023-05-19T03:17:10.614Z,97381.91
2023-05-19T03:18:12.981Z,97377.50
2023-05-19T03:19:14.957Z,97376.31
2023-05-19T03:20:16.843Z,97377.13
2023-05-19T03:21:18.780Z,97367.53
2023-05-19T03:22:21.629Z,97371.72
2023-05-19T03:23:23.619Z,97371.72
2023-05-19T03:24:25.708Z,97368.16
2023-05-19T03:25:27.619Z,97362.75
2023-05-19T03:26:33.151Z,97369.41
2023-05-19T03:27:35.008Z,97365.63
2023-05-19T03:28:36.918Z,97369.66
2023-05-19T03:29:38.906Z,97367.03
2023-05-19T03:30:41.075Z,97368.47
2023-05-19T03:31:43.151Z,97368.22
2023-05-19T03:32:45.119Z,97374.22
2023-05-19T03:33:47.149Z,97367.03
2023-05-19T03:34:49.092Z,97360.03
2023-05-19T03:35:51.075Z,97365.06
2023-05-19T03:36:52.976Z,97367.66
2023-05-19T03:37:54.942Z,97370.28
2023-05-19T03:38:56.880Z,97366.25
2023-05-19T03:39:59.459Z,97368.41
2023-05-19T03:41:01.400Z,97368.41
2023-05-19T03:42:03.287Z,97370.75
2023-05-19T03:43:05.212Z,97365.09
2023-05-19T03:44:07.194Z,97367.88
2023-05-19T03:45:09.298Z,97366.28
2023-05-19T03:46:11.296Z,97361.06
2023-05-19T03:47:13.235Z,97368.69
2023-05-19T03:48:17.108Z,97363.47
2023-05-19T03:49:20.328Z,97363.13
2023-05-19T03:50:23.083Z,97360.34
2023-05-19T03:51:25.052Z,97367.16
2023-05-19T03:52:27.175Z,97359.34
2023-05-19T03:53:30.702Z,97359.34
2023-05-19T03:54:33.100Z,97357.34
2023-05-19T03:55:35.025Z,97351.97
2023-05-19T03:56:39.364Z,97356.00
2023-05-19T03:57:44.735Z,97354.41
2023-05-19T03:58:47.467Z,97363.56
2023-05-19T03:59:49.508Z,97352.31
2023-05-19T04:00:51.494Z,97354.41
2023-05-19T04:01:53.550Z,97348.56
2023-05-19T04:02:55.539Z,97354.41
2023-05-19T04:03:57.520Z,97367.03
2023-05-19T04:04:59.467Z,97366.25
2023-05-19T04:06:01.401Z,97361.22
2023-05-19T04:07:03.453Z,97363.63
2023-05-19T04:08:05.430Z,97360.84
2023-05-19T04:09:16.428Z,97366.88
2023-05-19T04:10:19.442Z,97363.09
2023-05-19T04:11:22.180Z,97364.72
2023-05-19T04:12:24.449Z,97362.72
2023-05-19T04:13:26.440Z,97364.16
2023-05-19T04:14:28.360Z,97361.38
2023-05-19T04:15:30.300Z,97357.75
2023-05-19T04:16:32.301Z,97364.59
2023-05-19T04:17:34.388Z,97369.97
2023-05-19T04:18:36.278Z,97362.91
2023-05-19T04:19:38.208Z,97362.09
2023-05-19T04:20:40.087Z,97369.75
2023-05-19T04:21:41.930Z,97359.84
2023-05-19T04:22:43.969Z,97367.22
2023-05-19T04:23:45.916Z,97362.84
2023-05-19T04:24:47.947Z,97364.81
2023-05-19T04:25:50.025Z,97364.81
2023-05-19T04:26:52.473Z,97366.19
2023-05-19T04:27:58.004Z,97366.53
2023-05-19T04:28:59.902Z,97359.34
2023-05-19T04:30:01.789Z,97357.00
2023-05-19T04:31:03.790Z,97359.22
2023-05-19T04:32:08.417Z,97354.66
2023-05-19T04:33:10.500Z,97356.06
2023-05-19T04:34:12.565Z,97360.13
2023-05-19T04:35:15.742Z,97356.34
2023-05-19T04:36:21.929Z,97359.75
2023-05-19T04:37:24.586Z,97357.34
2023-05-19T04:38:26.524Z,97358.94
2023-05-19T04:39:28.500Z,97355.72
2023-05-19T04:40:31.745Z,97355.53
2023-05-19T04:41:36.769Z,97357.41
2023-05-19T04:42:41.682Z,97355.47
2023-05-19T04:43:44.970Z,97357.00
2023-05-19T04:44:49.742Z,97357.41
2023-05-19T04:45:51.756Z,97353.38
2023-05-19T04:46:54.649Z,97354.34
2023-05-19T04:47:58.441Z,97353.09
2023-05-19T04:49:01.578Z,97350.75
2023-05-19T04:50:04.550Z,97349.50
2023-05-19T04:51:07.814Z,97357.13
2023-05-19T04:52:13.180Z,97349.88
2023-05-19T04:53:15.832Z,97355.81
2023-05-19T04:54:17.794Z,97354.97
2023-05-19T04:55:19.915Z,97353.22
2023-05-19T04:56:22.535Z,97345.47
2023-05-19T04:57:24.400Z,97349.97
2023-05-19T04:58:26.673Z,97354.16
2023-05-19T04:59:28.685Z,97346.97
2023-05-19T05:00:31.101Z,97347.59
2023-05-19T05:01:34.259Z,97350.84
2023-05-19T05:02:37.720Z,97345.09
2023-05-19T05:03:39.928Z,97352.53
2023-05-19T05:04:44.333Z,97351.72
2023-05-19T05:05:46.348Z,97346.19
2023-05-19T05:06:49.040Z,97354.41
2023-05-19T05:07:51.634Z,97348.41
2023-05-19T05:08:53.616Z,97351.63
2023-05-19T05:09:55.693Z,97350.66
2023-05-19T05:10:57.953Z,97350.66
2023-05-19T05:12:00.069Z,97351.28
2023-05-19T05:13:02.249Z,97350.91
2023-05-19T05:14:04.293Z,97348.13
2023-05-19T05:15:07.328Z,97354.94
2023-05-19T05:16:09.682Z,97353.16
2023-05-19T05:17:13.061Z,97347.75
2023-05-19T05:18:15.611Z,97346.75
2023-05-19T05:19:17.715Z,97351.16
2023-05-19T05:20:20.143Z,97344.50
2023-05-19T05:21:23.434Z,97351.69
2023-05-19T05:22:25.467Z,97344.09
2023-05-19T05:23:27.623Z,97341.50
2023-05-19T05:24:29.639Z,97342.28
2023-05-19T05:25:32.136Z,97346.69
2023-05-19T05:26:35.772Z,97342.13
2023-05-19T05:27:37.763Z,97346.31
2023-05-19T05:28:39.621Z,97343.53
2023-05-19T05:29:41.478Z,97353.56
2023-05-19T05:30:44.095Z,97350.78
2023-05-19T05:31:47.417Z,97342.97
2023-05-19T05:32:49.429Z,97352.41
2023-05-19T05:33:51.555Z,97348.81
2023-05-19T05:34:53.561Z,97345.22
2023-05-19T05:35:55.505Z,97338.84
2023-05-19T05:36:57.356Z,97340.25
2023-05-19T05:37:59.340Z,97341.88
2023-05-19T05:39:03.401Z,97338.91
2023-05-19T05:40:07.316Z,97340.97
2023-05-19T05:41:09.316Z,97338.78
2023-05-19T05:42:11.339Z,97337.41
2023-05-19T05:43:13.265Z,97340.47
2023-05-19T05:44:15.135Z,97339.28
2023-05-19T05:45:17.116Z,97342.50
2023-05-19T05:46:19.199Z,97342.94
2023-05-19T05:47:21.233Z,97340.78
2023-05-19T05:48:23.694Z,97334.59
2023-05-19T05:49:25.788Z,97340.03
2023-05-19T05:50:27.837Z,97343.28
2023-05-19T05:51:30.033Z,97338.69
2023-05-19T05:52:32.769Z,97340.09
2023-05-19T05:53:37.410Z,97341.72
2023-05-19T05:54:39.487Z,97343.13
2023-05-19T05:55:41.742Z,97340.53
2023-05-19T05:56:43.729Z,97343.75
2023-05-19T05:57:45.689Z,97344.19
2023-05-19T05:58:47.790Z,97337.78
2023-05-19T05:59:50.979Z,97337.44
2023-05-19T06:00:53.747Z,97343.28
2023-05-19T06:01:55.723Z,97335.44
2023-05-19T06:02:59.634Z,97341.09
2023-05-19T06:04:02.218Z,97335.66
2023-05-19T06:05:04.283Z,97334.69
2023-05-19T06:06:06.618Z,97337.13
2023-05-19T06:07:08.705Z,97325.50
2023-05-19T06:08:10.671Z,97330.72
2023-05-19T06:09:12.761Z,97336.38
2023-05-19T06:10:15.275Z,97334.19
2023-05-19T06:11:17.270Z,97326.00
2023-05-19T06:12:19.311Z,97329.84
2023-05-19T06:13:24.281Z,97333.06
2023-05-19T06:14:26.313Z,97338.09
2023-05-19T06:15:28.248Z,97341.13
2023-05-19T06:16:30.237Z,97332.13
2023-05-19T06:17:32.335Z,97336.16
2023-05-19T06:18:34.268Z,97335.97
2023-05-19T06:19:36.128Z,97336.94
2023-05-19T06:20:37.981Z,97334.16
2023-05-19T06:21:39.895Z,97327.34
2023-05-19T06:22:41.844Z,97330.16
2023-05-19T06:23:43.945Z,97329.19
2023-05-19T06:24:45.937Z,97323.75
2023-05-19T06:25:47.929Z,97329.81
2023-05-19T06:26:49.900Z,97326.59
2023-05-19T06:27:51.885Z,97328.03
2023-05-19T06:28:53.814Z,97333.84
2023-05-19T06:29:55.702Z,97333.47
2023-05-19T06:30:57.778Z,97331.28
2023-05-19T06:31:59.754Z,97332.91
2023-05-19T06:33:01.896Z,97327.50
2023-05-19T06:34:03.883Z,97327.09
2023-05-19T06:35:05.960Z,97327.91
2023-05-19T06:36:10.250Z,97328.53
2023-05-19T06:37:12.233Z,97325.53
2023-05-19T06:38:14.114Z,97326.94
2023-05-19T06:39:16.155Z,97327.94
2023-05-19T06:40:18.104Z,97327.94
2023-05-19T06:41:19.979Z,97320.31
2023-05-19T06:42:25.712Z,97325.97
2023-05-19T06:43:27.664Z,97323.59
2023-05-19T06:44:29.674Z,97320.78
2023-05-19T06:45:31.590Z,97322.22
2023-05-19T06:46:33.621Z,97320.00
2023-05-19T06:47:35.849Z,97321.22
2023-05-19T06:48:37.809Z,97324.47
2023-05-19T06:49:39.859Z,97326.06
2023-05-19T06:50:41.743Z,97318.84
2023-05-19T06:51:43.894Z,97325.28
2023-05-19T06:52:47.382Z,97322.50
2023-05-19T06:53:49.549Z,97318.66
2023-05-19T06:54:51.614Z,97320.69
2023-05-19T06:55:58.690Z,97324.53
2023-05-19T06:57:01.489Z,97325.34
2023-05-19T06:58:03.406Z,97324.34
2023-05-19T06:59:05.370Z,97321.72
2023-05-19T07:00:10.713Z,97312.88
2023-05-19T07:01:12.603Z,97316.31
2023-05-19T07:02:14.686Z,97319.72
2023-05-19T07:03:16.761Z,97318.13
2023-05-19T07:04:18.861Z,97319.34
2023-05-19T07:05:21.019Z,97319.13
2023-05-19T07:06:23.212Z,97315.94
2023-05-19T07:07:25.168Z,97312.09
2023-05-19T07:08:28.251Z,97309.91
2023-05-19T07:09:30.125Z,97310.34
2023-05-19T07:10:32.263Z,97315.94
2023-05-19T07:11:34.264Z,97314.16
2023-05-19T07:12:36.283Z,97310.72
2023-05-19T07:13:38.273Z,97308.72
2023-05-19T07:14:40.336Z,97310.16
2023-05-19T07:15:42.274Z,97308.94
2023-05-19T07:16:44.304Z,97307.72
2023-05-19T07:17:46.352Z,97302.31
2023-05-19T07:18:48.302Z,97306.13
2023-05-19T07:19:50.220Z,97312.75
2023-05-19T07:20:53.192Z,97303.31
2023-05-19T07:21:55.916Z,97310.16
2023-05-19T07:22:58.014Z,97302.13
2023-05-19T07:23:59.997Z,97297.75
2023-05-19T07:25:02.030Z,97311.41
2023-05-19T07:26:04.130Z,97301.34
2023-05-19T07:27:06.241Z,97299.94
2023-05-19T07:28:08.195Z,97298.53
2023-05-19T07:29:10.038Z,97291.09
2023-05-19T07:30:12.266Z,97293.09
2023-05-19T07:31:14.250Z,97294.50
2023-05-19T07:32:16.315Z,97290.69
2023-05-19T07:33:18.344Z,97291.31
2023-05-19T07:34:21.215Z,97286.47
2023-05-19T07:35:23.240Z,97287.88
2023-05-19T07:36:25.172Z,97283.63
2023-05-19T07:37:27.100Z,97279.59
2023-05-19T07:38:29.182Z,97278.19
2023-05-19T07:39:32.654Z,97279.63
2023-05-19T07:40:34.689Z,97278.41
2023-05-19T07:41:36.753Z,97285.03
2023-05-19T07:42:38.637Z,97280.00
2023-05-19T07:43:40.492Z,97269.31
2023-05-19T07:44:42.483Z,97272.94
2023-05-19T07:45:44.459Z,97270.75
2023-05-19T07:46:46.434Z,97265.50
2023-05-19T07:47:48.387Z,97261.88
2023-05-19T07:48:50.369Z,97260.44
2023-05-19T07:49:52.333Z,97265.50
2023-05-19T07:50:54.423Z,97265.09
2023-05-19T07:51:56.372Z,97262.25
2023-05-19T07:52:58.326Z,97264.06
2023-05-19T07:54:00.190Z,97259.84
2023-05-19T07:55:02.116Z,97257.84
2023-05-19T07:56:04.884Z,97260.63
2023-05-19T07:57:06.847Z,97261.03
2023-05-19T07:58:08.708Z,97256.59
2023-05-19T07:59:10.824Z,97258.56
2023-05-19T08:00:13.869Z,97255.38
2023-05-19T08:01:15.850Z,97256.75
2023-05-19T08:02:18.267Z,97253.94
2023-05-19T08:03:21.367Z,97250.91
2023-05-19T08:04:23.481Z,97250.69
2023-05-19T08:05:26.351Z,97247.69
2023-05-19T08:06:30.202Z,97248.88
2023-05-19T08:07:32.169Z,97247.25
2023-05-19T08:08:34.722Z,97247.44
2023-05-19T08:09:36.790Z,97239.34
2023-05-19T08:10:38.815Z,97238.50
2023-05-19T08:11:40.925Z,97239.09
2023-05-19T08:12:42.899Z,97241.31
2023-05-19T08:13:47.931Z,97239.09
2023-05-19T08:14:49.823Z,97241.50
2023-05-19T08:15:51.784Z,97236.63
2023-05-19T08:16:53.766Z,97231.78
2023-05-19T08:17:56.399Z,97233.41
2023-05-19T08:18:58.400Z,97228.16
2023-05-19T08:20:00.746Z,97237.41
2023-05-19T08:21:02.869Z,97228.31
2023-05-19T08:22:04.901Z,97220.69
2023-05-19T08:23:07.056Z,97221.28
2023-05-19T08:24:09.367Z,97225.88
2023-05-19T08:25:12.062Z,97224.63
2023-05-19T08:26:14.028Z,97222.63
2023-05-19T08:27:17.012Z,97233.47
2023-05-19T08:28:18.899Z,97214.72
2023-05-19T08:29:20.914Z,97216.25
2023-05-19T08:30:22.826Z,97221.25
2023-05-19T08:31:25.594Z,97216.97
2023-05-19T08:32:27.539Z,97205.25
2023-05-19T08:33:29.527Z,97212.50
2023-05-19T08:34:32.804Z,97211.25
2023-05-19T08:35:34.903Z,97206.19
2023-05-19T08:36:36.806Z,97200.28
2023-05-19T08:37:39.377Z,97197.22
2023-05-19T08:38:41.300Z,97195.16
2023-05-19T08:39:43.297Z,97192.94
2023-05-19T08:40:47.026Z,97193.50
2023-05-19T08:41:48.954Z,97192.84
2023-05-19T08:42:50.883Z,97190.03
2023-05-19T08:43:52.877Z,97194.03
2023-05-19T08:44:54.889Z,97200.03
2023-05-19T08:45:56.836Z,97186.31
2023-05-19T08:47:01.171Z,97187.94
2023-05-19T08:48:03.549Z,97189.91
2023-05-19T08:49:09.749Z,97192.06
2023-05-19T08:50:12.201Z,97184.56
2023-05-19T08:51:32.611Z,97180.50
2023-05-19T08:53:01.871Z,97180.41
2023-05-19T08:54:15.051Z,97173.69
2023-05-19T08:55:27.947Z,97179.53
2023-05-19T08:56:30.517Z,97175.69
2023-05-19T08:57:33.189Z,97173.44
2023-05-19T08:58:35.232Z,97172.72
2023-05-19T08:59:37.937Z,97168.63
2023-05-19T09:00:39.947Z,97166.56
2023-05-19T09:01:43.405Z,97166.38
2023-05-19T09:02:55.219Z,97171.97
2023-05-19T09:04:09.225Z,97166.84
2023-05-19T09:05:11.391Z,97167.78
2023-05-19T09:06:13.554Z,97156.41
2023-05-19T09:07:15.942Z,97161.56
2023-05-19T09:08:18.687Z,97161.47
2023-05-19T09:09:20.621Z,97152.13
2023-05-19T09:10:22.575Z,97158.75
2023-05-19T09:11:24.507Z,97160.47
2023-05-19T09:12:26.518Z,97162.22
2023-05-19T09:13:28.554Z,97157.88
2023-05-19T09:14:31.121Z,97157.22
2023-05-19T09:15:34.487Z,97148.41
2023-05-19T09:16:37.092Z,97150.97
2023-05-19T09:17:40.032Z,97153.47
2023-05-19T09:18:53.802Z,97148.91
2023-05-19T09:19:56.293Z,97150.63
2023-05-19T09:21:05.294Z,97148.69
2023-05-19T09:22:07.509Z,97149.28
2023-05-19T09:23:18.563Z,97148.59
2023-05-19T09:24:20.935Z,97153.78
2023-05-19T09:25:23.558Z,97144.38
2023-05-19T09:26:25.668Z,97141.28
2023-05-19T09:27:34.094Z,97137.16
2023-05-19T09:28:36.758Z,97135.31
2023-05-19T09:29:38.777Z,97138.06
2023-05-19T09:30:40.767Z,97136.78
2023-05-19T09:31:50.871Z,97137.38
2023-05-19T09:32:52.965Z,97133.56
2023-05-19T09:33:54.882Z,97136.28
2023-05-19T09:34:57.397Z,97132.16
2023-05-19T09:35:59.448Z,97130.66
2023-05-19T09:37:01.457Z,97128.59
2023-05-19T09:38:03.660Z,97127.22
2023-05-19T09:39:13.407Z,97127.31
2023-05-19T09:40:15.995Z,97121.69
2023-05-19T09:41:18.038Z,97117.53
2023-05-19T09:42:30.822Z,97118.75
2023-05-19T09:43:34.256Z,97122.09
2023-05-19T09:44:36.322Z,97123.44
2023-05-19T09:45:38.210Z,97117.44
2023-05-19T09:46:47.811Z,97116.50
2023-05-19T09:47:49.717Z,97107.91
2023-05-19T09:48:51.887Z,97109.81
2023-05-19T09:49:54.142Z,97108.06
2023-05-19T09:50:57.004Z,97109.44
2023-05-19T09:52:00.057Z,97112.16
2023-05-19T09:53:02.490Z,97110.16
2023-05-19T09:54:04.946Z,97110.53
2023-05-19T09:55:10.408Z,97102.72
2023-05-19T09:56:15.425Z,97107.28
2023-05-19T09:57:18.042Z,97103.09
2023-05-19T09:58:20.928Z,97106.41
2023-05-19T09:59:24.835Z,97104.94
2023-05-19T10:00:27.646Z,97102.94
2023-05-19T10:01:31.714Z,97106.22
2023-05-19T10:02:34.075Z,97097.09
2023-05-19T10:03:37.016Z,97102.22
2023-05-19T10:04:39.017Z,97089.84
2023-05-19T10:05:42.514Z,97091.28
2023-05-19T10:06:44.558Z,97095.56
2023-05-19T10:07:48.911Z,97088.75
2023-05-19T10:08:52.656Z,97092.59
2023-05-19T10:09:56.539Z,97088.94
2023-05-19T10:10:59.578Z,97087.97
2023-05-19T10:12:02.848Z,97084.63
2023-05-19T10:13:05.670Z,97084.19
2023-05-19T10:14:09.290Z,97087.44
2023-05-19T10:15:12.357Z,97086.19
2023-05-19T10:16:17.092Z,97076.72
2023-05-19T10:17:19.030Z,97081.84
2023-05-19T10:18:21.400Z,97082.19
2023-05-19T10:19:24.880Z,97079.09
2023-05-19T10:20:27.309Z,97074.13
2023-05-19T10:21:29.266Z,97079.22
2023-05-19T10:22:31.257Z,97075.28
2023-05-19T10:23:33.441Z,97074.56
2023-05-19T10:24:35.339Z,97080.22
2023-05-19T10:25:38.554Z,97067.78
2023-05-19T10:26:43.192Z,97068.13
2023-05-19T10:27:50.590Z,97065.00
2023-05-19T10:28:53.056Z,97068.53
2023-05-19T10:29:57.859Z,97065.41
2023-05-19T10:31:02.035Z,97065.69
2023-05-19T10:32:08.666Z,97069.47
2023-05-19T10:33:12.465Z,97067.09
2023-05-19T10:34:22.422Z,97066.59
2023-05-19T10:35:50.345Z,97066.38
2023-05-19T10:37:03.970Z,97069.56
2023-05-19T10:38:05.873Z,97062.91
2023-05-19T10:39:28.155Z,97058.72
2023-05-19T10:40:33.093Z,97067.78
2023-05-19T10:41:37.657Z,97069.13
2023-05-19T10:42:54.211Z,97055.94
2023-05-19T10:44:10.355Z,97060.44
2023-05-19T10:45:15.211Z,97063.09
2023-05-19T10:46:17.277Z,97057.28
2023-05-19T10:47:26.032Z,97059.66
2023-05-19T10:48:33.547Z,97062.03
2023-05-19T10:49:37.107Z,97060.19
2023-05-19T10:50:39.044Z,97049.03
2023-05-19T10:51:45.734Z,97054.56
2023-05-19T10:52:54.193Z,97052.97
2023-05-19T10:53:56.127Z,97048.66
2023-05-19T10:54:58.697Z,97045.41
2023-05-19T10:56:05.243Z,97051.75
2023-05-19T10:57:08.521Z,97047.31
2023-05-19T10:58:11.620Z,97050.50
2023-05-19T10:59:32.977Z,97042.47
2023-05-19T11:00:35.253Z,97044.09
2023-05-19T11:01:38.649Z,97044.91
2023-05-19T11:02:44.504Z,97056.38
2023-05-19T11:03:50.455Z,97051.69
2023-05-19T11:04:52.603Z,97049.84
2023-05-19T11:06:14.406Z,97040.00
2023-05-19T11:07:18.264Z,97050.84
2023-05-19T11:08:32.587Z,97043.84
2023-05-19T11:09:40.801Z,97042.00
2023-05-19T11:10:46.522Z,97045.78
2023-05-19T11:11:50.188Z,97041.84
2023-05-19T11:12:52.416Z,97042.91
2023-05-19T11:13:57.925Z,97045.03
2023-05-19T11:14:59.900Z,97047.16
2023-05-19T11:16:07.487Z,97042.81
2023-05-19T11:17:14.169Z,97046.44
2023-05-19T11:18:16.737Z,97041.88
2023-05-19T11:19:28.647Z,97034.63
2023-05-19T11:20:35.299Z,97046.09
2023-05-19T11:21:49.427Z,97047.72
2023-05-19T11:23:11.099Z,97036.06
2023-05-19T11:24:32.902Z,97040.41
2023-05-19T11:25:45.079Z,97046.22
2023-05-19T11:26:47.816Z,97036.50
2023-05-19T11:27:51.634Z,97044.19
2023-05-19T11:28:54.055Z,97046.50
2023-05-19T11:29:57.338Z,97048.25
2023-05-19T11:31:00.336Z,97045.91
2023-05-19T11:32:02.267Z,97040.69
2023-05-19T11:33:04.941Z,97042.63
2023-05-19T11:34:07.720Z,97045.66
2023-05-19T11:35:10.281Z,97045.47
2023-05-19T11:36:12.875Z,97046.22
2023-05-19T11:37:14.817Z,97049.53
2023-05-19T11:38:20.380Z,97040.13
2023-05-19T11:39:22.439Z,97049.63
2023-05-19T11:40:24.373Z,97045.19
2023-05-19T11:41:28.757Z,97052.69
2023-05-19T11:42:32.157Z,97053.53
2023-05-19T11:43:34.190Z,97047.56
2023-05-19T11:44:36.268Z,97046.91
2023-05-19T11:45:38.292Z,97040.34
2023-05-19T11:46:40.270Z,97043.38
2023-05-19T11:48:00.885Z,97049.34
2023-05-19T11:49:05.096Z,97051.31
2023-05-19T11:50:07.343Z,97053.50
2023-05-19T11:51:09.331Z,97054.34
2023-05-19T11:52:11.494Z,97043.75
2023-05-19T11:53:14.255Z,97051.19
2023-05-19T11:54:17.132Z,97056.56
2023-05-19T11:55:19.660Z,97062.41
2023-05-19T11:56:21.881Z,97059.22
2023-05-19T11:57:23.768Z,97061.75
2023-05-19T11:58:28.087Z,97060.03
2023-05-19T11:59:35.766Z,97058.09
2023-05-19T12:00:40.241Z,97052.03
2023-05-19T12:01:42.665Z,97055.59
2023-05-19T12:02:44.587Z,97057.53
2023-05-19T12:03:46.779Z,97055.97
2023-05-19T12:04:52.521Z,97055.47
2023-05-19T12:05:54.835Z,97056.28
2023-05-19T12:06:56.703Z,97060.91
2023-05-19T12:08:00.177Z,97058.28
2023-05-19T12:09:02.074Z,97066.28
2023-05-19T12:10:04.100Z,97072.66
2023-05-19T12:11:06.892Z,97067.88
2023-05-19T12:12:08.871Z,97063.91
2023-05-19T12:13:11.231Z,97062.56
2023-05-19T12:14:13.420Z,97072.38
2023-05-19T12:15:17.351Z,97078.22
2023-05-19T12:16:22.406Z,97071.59
2023-05-19T12:17:24.510Z,97067.88
2023-05-19T12:18:28.475Z,97059.91
2023-05-19T12:19:31.054Z,97060.97
2023-05-19T12:20:33.158Z,97059.38
2023-05-19T12:21:35.478Z,97065.50
2023-05-19T12:22:37.462Z,97053.28
2023-05-19T12:23:40.319Z,97053.81
2023-05-19T12:24:43.304Z,97060.97
2023-05-19T12:25:45.673Z,97048.50